createdAt,value
2022-09-30T00:00:43.277Z,6.50
2022-09-30T00:03:11.171Z,6.60
2022-09-30T00:05:39.094Z,6.60
2022-09-30T00:08:06.921Z,6.70
2022-09-30T00:10:34.769Z,6.80
2022-09-30T00:13:02.657Z,6.80
2022-09-30T00:15:32.285Z,6.90
2022-09-30T00:18:00.281Z,6.90
2022-09-30T00:20:30.256Z,6.90
2022-09-30T00:22:58.137Z,6.90
2022-09-30T00:25:25.985Z,6.90
2022-09-30T00:27:53.913Z,6.80
2022-09-30T00:30:21.879Z,6.80
2022-09-30T00:32:51.044Z,6.70
2022-09-30T00:35:22.409Z,6.70
2022-09-30T00:37:50.453Z,6.70
2022-09-30T00:40:20.186Z,6.70
2022-09-30T00:42:47.989Z,6.70
2022-09-30T00:45:18.008Z,6.60
2022-09-30T00:47:48.777Z,6.60
2022-09-30T00:50:29.025Z,6.50
2022-09-30T00:52:59.157Z,6.50
2022-09-30T00:55:30.773Z,6.60
2022-09-30T00:58:00.132Z,6.70
2022-09-30T01:00:28.088Z,6.70
2022-09-30T01:02:56.183Z,6.80
2022-09-30T01:05:25.441Z,6.90
2022-09-30T01:07:55.088Z,7.00
2022-09-30T01:10:23.004Z,7.10
2022-09-30T01:12:51.114Z,7.20
2022-09-30T01:15:19.954Z,7.30
2022-09-30T01:17:51.112Z,7.40
2022-09-30T01:20:27.398Z,7.40
2022-09-30T01:23:05.881Z,7.50
2022-09-30T01:25:54.894Z,7.50
2022-09-30T01:28:36.694Z,7.60
2022-09-30T01:31:11.853Z,7.60
2022-09-30T01:33:46.061Z,7.60
2022-09-30T01:36:21.917Z,7.70
2022-09-30T01:38:50.899Z,7.70
2022-09-30T01:41:23.428Z,7.70
2022-09-30T01:43:55.172Z,7.70
2022-09-30T01:46:30.303Z,7.70
2022-09-30T01:48:59.953Z,7.70
2022-09-30T01:51:31.272Z,7.70
2022-09-30T01:54:01.812Z,7.60
2022-09-30T01:56:34.068Z,7.60
2022-09-30T01:59:03.476Z,7.50
2022-09-30T02:01:35.617Z,7.40
2022-09-30T02:04:06.304Z,7.40
2022-09-30T02:06:36.499Z,7.30
2022-09-30T02:09:06.110Z,7.20
2022-09-30T02:11:36.283Z,7.00
2022-09-30T02:14:06.913Z,6.90
2022-09-30T02:16:39.900Z,6.90
2022-09-30T02:19:12.036Z,6.90
2022-09-30T02:21:44.398Z,6.90
2022-09-30T02:24:15.046Z,6.80
2022-09-30T02:26:44.326Z,6.80
2022-09-30T02:29:14.876Z,6.80
2022-09-30T02:31:45.457Z,6.80
2022-09-30T02:34:17.636Z,6.70
2022-09-30T02:36:47.167Z,6.60
2022-09-30T02:39:17.238Z,6.60
2022-09-30T02:41:46.865Z,6.40
2022-09-30T02:44:15.654Z,6.40
2022-09-30T02:46:50.957Z,6.30
2022-09-30T02:49:21.494Z,6.20
2022-09-30T02:51:57.780Z,6.00
2022-09-30T02:54:29.007Z,6.00
2022-09-30T02:56:59.683Z,6.00
2022-09-30T02:59:27.637Z,6.00
2022-09-30T03:01:56.869Z,5.90
2022-09-30T03:04:28.052Z,5.90
2022-09-30T03:06:56.471Z,5.90
2022-09-30T03:09:25.851Z,5.90
2022-09-30T03:11:57.341Z,6.00
2022-09-30T03:14:32.713Z,6.00
2022-09-30T03:17:22.166Z,6.00
2022-09-30T03:20:00.736Z,6.00
2022-09-30T03:22:42.784Z,6.00
2022-09-30T03:25:20.785Z,5.90
2022-09-30T03:27:54.233Z,5.90
2022-09-30T03:30:26.907Z,5.90
2022-09-30T03:33:04.844Z,5.90
2022-09-30T03:35:38.205Z,5.80
2022-09-30T03:38:10.576Z,5.80
2022-09-30T03:40:41.829Z,5.80
2022-09-30T03:43:15.633Z,5.70
2022-09-30T03:45:47.943Z,5.70
2022-09-30T03:48:17.655Z,5.70
2022-09-30T03:50:46.213Z,5.70
2022-09-30T03:53:14.308Z,5.70
2022-09-30T03:55:48.833Z,5.60
2022-09-30T03:58:17.411Z,5.60
2022-09-30T04:00:48.400Z,5.60
2022-09-30T04:03:18.751Z,5.50
2022-09-30T04:05:47.283Z,5.50
2022-09-30T04:08:15.248Z,5.50
2022-09-30T04:10:44.795Z,5.40
2022-09-30T04:13:13.228Z,5.40
2022-09-30T04:15:41.651Z,5.30
2022-09-30T04:18:09.535Z,5.30
2022-09-30T04:20:39.361Z,5.30
2022-09-30T04:23:07.191Z,5.30
2022-09-30T04:25:35.010Z,5.20
2022-09-30T04:28:03.113Z,5.20
2022-09-30T04:30:33.600Z,5.20
2022-09-30T04:33:01.656Z,5.10
2022-09-30T04:35:30.147Z,5.00
2022-09-30T04:37:59.386Z,5.10
2022-09-30T04:40:27.297Z,5.10
2022-09-30T04:42:58.154Z,5.10
2022-09-30T04:45:26.453Z,5.00
2022-09-30T04:47:54.450Z,5.00
2022-09-30T04:50:22.591Z,5.00
2022-09-30T04:52:53.210Z,5.00
2022-09-30T04:55:22.388Z,5.00
2022-09-30T04:57:50.442Z,4.90
2022-09-30T05:00:20.469Z,4.90
2022-09-30T05:02:48.352Z,4.80
2022-09-30T05:05:16.262Z,4.70
2022-09-30T05:07:44.136Z,4.70
2022-09-30T05:10:12.247Z,4.80
2022-09-30T05:12:41.898Z,4.80
2022-09-30T05:15:10.352Z,4.80
2022-09-30T05:17:38.480Z,4.90
2022-09-30T05:20:10.711Z,4.90
2022-09-30T05:22:38.918Z,4.90
2022-09-30T05:25:07.329Z,5.00
2022-09-30T05:27:35.122Z,5.00
2022-09-30T05:30:06.554Z,4.90
2022-09-30T05:32:34.456Z,4.90
2022-09-30T05:35:03.517Z,4.90
2022-09-30T05:37:31.480Z,4.90
2022-09-30T05:39:59.487Z,5.10
2022-09-30T05:42:28.923Z,5.30
2022-09-30T05:44:56.790Z,5.40
2022-09-30T05:47:26.119Z,5.50
2022-09-30T05:49:56.117Z,5.70
2022-09-30T05:52:24.187Z,6.10
2022-09-30T05:54:52.043Z,6.50
2022-09-30T05:57:20.957Z,6.80
2022-09-30T05:59:48.889Z,7.00
2022-09-30T06:02:16.919Z,7.30
2022-09-30T06:04:46.179Z,7.70
2022-09-30T06:07:14.266Z,8.20
2022-09-30T06:09:42.188Z,8.60
2022-09-30T06:12:10.968Z,9.00
2022-09-30T06:14:38.786Z,9.30
2022-09-30T06:17:06.770Z,9.70
2022-09-30T06:19:34.646Z,10.00
2022-09-30T06:22:03.807Z,10.30
2022-09-30T06:24:31.924Z,10.90
2022-09-30T06:27:00.094Z,11.40
2022-09-30T06:29:27.905Z,11.90
2022-09-30T06:31:55.850Z,12.50
2022-09-30T06:34:24.049Z,13.20
2022-09-30T06:36:51.858Z,13.50
2022-09-30T06:39:21.167Z,14.00
2022-09-30T06:41:49.173Z,14.50
2022-09-30T06:44:25.929Z,14.70
2022-09-30T06:46:54.496Z,15.10
2022-09-30T06:49:22.744Z,15.50
2022-09-30T06:51:52.145Z,15.90
2022-09-30T06:54:21.883Z,16.20
2022-09-30T06:56:50.539Z,16.60
2022-09-30T06:59:18.510Z,16.90
2022-09-30T07:01:46.492Z,17.20
2022-09-30T07:04:16.748Z,17.70
2022-09-30T07:06:45.136Z,18.10
2022-09-30T07:09:13.300Z,18.40
2022-09-30T07:11:43.429Z,18.00
2022-09-30T07:14:13.377Z,18.00
2022-09-30T07:16:41.363Z,18.60
2022-09-30T07:19:10.178Z,19.00
2022-09-30T07:21:38.086Z,19.70
2022-09-30T07:24:06.340Z,19.90
2022-09-30T07:26:34.612Z,19.70
2022-09-30T07:29:04.222Z,19.70
2022-09-30T07:31:34.719Z,19.20
2022-09-30T07:34:07.265Z,19.00
2022-09-30T07:36:37.133Z,18.90
2022-09-30T07:39:06.921Z,18.90
2022-09-30T07:41:37.910Z,18.40
2022-09-30T07:44:09.317Z,18.10
2022-09-30T07:46:39.187Z,18.00
2022-09-30T07:49:09.328Z,17.90
2022-09-30T07:51:38.960Z,17.80
2022-09-30T07:54:08.151Z,17.60
2022-09-30T07:56:58.172Z,17.90
2022-09-30T07:59:28.626Z,18.00
2022-09-30T08:01:56.952Z,18.80
2022-09-30T08:04:26.399Z,19.30
2022-09-30T08:06:56.088Z,19.60
2022-09-30T08:09:25.226Z,19.50
2022-09-30T08:11:53.882Z,19.90
2022-09-30T08:14:22.837Z,20.70
2022-09-30T08:16:52.950Z,21.60
2022-09-30T08:19:23.144Z,23.20
2022-09-30T08:21:53.260Z,23.90
2022-09-30T08:24:22.421Z,25.00
2022-09-30T08:26:50.742Z,26.50
2022-09-30T08:29:25.019Z,27.60
2022-09-30T08:32:00.044Z,27.60
2022-09-30T08:34:33.959Z,27.90
2022-09-30T08:37:06.299Z,28.80
2022-09-30T08:39:37.142Z,29.70
2022-09-30T08:42:39.596Z,30.30
2022-09-30T08:45:14.384Z,31.00
2022-09-30T08:47:47.874Z,32.00
2022-09-30T08:50:20.391Z,32.20
2022-09-30T08:52:50.374Z,32.30
2022-09-30T08:55:21.695Z,31.90
2022-09-30T08:57:49.749Z,32.20
2022-09-30T09:00:19.043Z,32.90
2022-09-30T09:02:51.455Z,32.60
2022-09-30T09:05:25.896Z,31.30
2022-09-30T09:07:57.172Z,31.20
2022-09-30T09:10:29.569Z,31.80
2022-09-30T09:13:00.225Z,32.00
2022-09-30T09:15:32.784Z,32.20
2022-09-30T09:18:23.088Z,31.30
2022-09-30T09:20:55.524Z,30.20
2022-09-30T09:23:23.756Z,30.50
2022-09-30T09:25:54.692Z,31.40
2022-09-30T09:28:26.173Z,31.70
2022-09-30T09:30:57.012Z,31.20
2022-09-30T09:33:29.791Z,31.10
2022-09-30T09:36:03.168Z,31.40
2022-09-30T09:38:35.889Z,31.60
2022-09-30T09:41:10.637Z,32.20
2022-09-30T09:43:44.227Z,32.70
2022-09-30T09:46:15.309Z,32.90
2022-09-30T09:48:44.799Z,32.70
2022-09-30T09:51:17.086Z,33.20
2022-09-30T09:53:49.635Z,33.80
2022-09-30T09:56:19.585Z,33.70
2022-09-30T09:59:06.766Z,33.90
2022-09-30T10:01:35.252Z,34.20
2022-09-30T10:04:15.454Z,34.10
2022-09-30T10:06:44.652Z,34.70
2022-09-30T10:09:23.354Z,35.10
2022-09-30T10:11:51.318Z,35.50
2022-09-30T10:14:21.825Z,35.90
2022-09-30T10:16:50.002Z,36.50
2022-09-30T10:19:21.468Z,37.10
2022-09-30T10:21:51.864Z,37.80
2022-09-30T10:24:28.980Z,38.00
2022-09-30T10:26:56.864Z,38.50
2022-09-30T10:29:29.688Z,38.30
2022-09-30T10:32:00.041Z,37.30
2022-09-30T10:34:31.563Z,36.90
2022-09-30T10:37:02.542Z,36.90
2022-09-30T10:39:31.814Z,36.80
2022-09-30T10:42:03.259Z,36.30
2022-09-30T10:44:31.914Z,36.60
2022-09-30T10:47:00.661Z,36.70
2022-09-30T10:49:31.785Z,37.10
2022-09-30T10:52:00.546Z,36.90
2022-09-30T10:54:43.326Z,35.80
2022-09-30T10:57:15.342Z,36.10
2022-09-30T10:59:43.883Z,35.80
2022-09-30T11:04:59.720Z,35.50
2022-09-30T11:07:30.418Z,35.70
2022-09-30T11:10:01.914Z,35.10
2022-09-30T11:12:33.429Z,34.90
2022-09-30T11:15:04.454Z,34.80
2022-09-30T11:17:34.979Z,34.80
2022-09-30T11:20:12.882Z,34.50
2022-09-30T11:22:44.257Z,34.70
2022-09-30T11:25:14.849Z,35.10
2022-09-30T11:27:53.240Z,35.60
2022-09-30T11:30:22.827Z,35.20
2022-09-30T11:32:57.430Z,35.30
2022-09-30T11:35:31.231Z,35.10
2022-09-30T11:38:04.561Z,34.60
2022-09-30T11:40:36.417Z,34.60
2022-09-30T11:43:09.646Z,33.70
2022-09-30T11:45:43.469Z,32.90
2022-09-30T11:48:18.608Z,32.60
2022-09-30T11:50:51.381Z,32.20
2022-09-30T11:53:27.419Z,30.60
2022-09-30T11:56:06.463Z,29.90
2022-09-30T11:58:41.400Z,30.80
2022-09-30T12:01:15.334Z,32.30
2022-09-30T12:03:45.141Z,33.20
2022-09-30T12:06:16.705Z,33.10
2022-09-30T12:08:48.129Z,32.80
2022-09-30T12:11:17.692Z,32.00
2022-09-30T12:13:51.854Z,32.50
2022-09-30T12:16:21.303Z,33.00
2022-09-30T12:18:50.851Z,33.00
2022-09-30T12:21:23.341Z,32.30
2022-09-30T12:23:55.208Z,31.40
2022-09-30T12:26:23.097Z,31.00
2022-09-30T12:29:11.499Z,31.70
2022-09-30T12:31:51.946Z,32.10
2022-09-30T12:34:31.785Z,31.60
2022-09-30T12:37:07.486Z,30.90
2022-09-30T12:39:44.511Z,30.20
2022-09-30T12:42:35.355Z,29.40
2022-09-30T12:45:36.889Z,28.90
2022-09-30T12:48:06.647Z,27.90
2022-09-30T12:50:36.803Z,26.90
2022-09-30T12:53:14.409Z,26.90
2022-09-30T12:55:42.973Z,27.60
2022-09-30T12:58:18.136Z,27.80
2022-09-30T13:01:00.300Z,27.60
2022-09-30T13:03:28.485Z,27.80
2022-09-30T13:06:06.481Z,28.30
2022-09-30T13:08:52.064Z,28.50
2022-09-30T13:11:33.417Z,28.70
2022-09-30T13:14:04.906Z,28.80
2022-09-30T13:16:54.919Z,28.70
2022-09-30T13:19:32.714Z,28.30
2022-09-30T13:22:16.935Z,27.80
2022-09-30T13:25:04.375Z,27.50
2022-09-30T13:27:35.921Z,27.30
2022-09-30T13:30:24.240Z,26.60
2022-09-30T13:33:06.249Z,26.30
2022-09-30T13:35:34.812Z,25.90
2022-09-30T13:38:16.903Z,25.90
2022-09-30T13:41:03.483Z,26.20
2022-09-30T13:43:35.177Z,26.40
2022-09-30T13:46:07.453Z,26.50
2022-09-30T13:48:36.401Z,27.10
2022-09-30T13:51:08.062Z,27.70
2022-09-30T13:53:37.895Z,27.50
2022-09-30T13:56:07.561Z,27.80
2022-09-30T13:58:48.187Z,28.10
2022-09-30T14:01:26.157Z,28.20
2022-09-30T14:04:06.407Z,28.30
2022-09-30T14:06:39.629Z,27.80
2022-09-30T14:09:25.520Z,27.80
2022-09-30T14:12:03.538Z,27.60
2022-09-30T14:15:00.466Z,27.10
2022-09-30T14:17:35.024Z,27.00
2022-09-30T14:20:11.493Z,27.40
2022-09-30T14:22:39.393Z,27.20
2022-09-30T14:25:14.601Z,26.90
2022-09-30T14:27:56.310Z,26.40
2022-09-30T14:30:26.243Z,26.40
2022-09-30T14:32:54.976Z,25.80
2022-09-30T14:35:24.225Z,25.40
2022-09-30T14:37:53.577Z,25.10
2022-09-30T14:40:24.886Z,25.00
2022-09-30T14:42:53.120Z,25.20
2022-09-30T14:45:26.837Z,25.00
2022-09-30T14:47:58.675Z,24.90
2022-09-30T14:50:28.404Z,24.90
2022-09-30T14:52:58.779Z,24.40
2022-09-30T14:55:28.601Z,24.10
2022-09-30T14:57:58.752Z,24.10
2022-09-30T15:00:31.292Z,24.20
2022-09-30T15:03:02.093Z,24.40
2022-09-30T15:05:30.099Z,24.20
2022-09-30T15:07:58.267Z,24.20
2022-09-30T15:10:26.718Z,24.20
2022-09-30T15:12:56.243Z,24.10
2022-09-30T15:15:28.598Z,23.80
2022-09-30T15:17:56.920Z,23.80
2022-09-30T15:20:29.382Z,23.70
2022-09-30T15:22:58.636Z,23.40
2022-09-30T15:25:26.693Z,23.00
2022-09-30T15:27:54.898Z,22.90
2022-09-30T15:30:24.535Z,22.70
2022-09-30T15:32:58.370Z,22.70
2022-09-30T15:35:27.871Z,22.70
2022-09-30T15:38:06.135Z,22.40
2022-09-30T15:40:50.417Z,22.50
2022-09-30T15:43:31.558Z,22.20
2022-09-30T15:46:09.204Z,22.30
2022-09-30T15:48:38.136Z,22.10
2022-09-30T15:51:20.864Z,21.50
2022-09-30T15:53:51.406Z,21.10
2022-09-30T15:56:24.902Z,20.70
2022-09-30T15:58:56.420Z,20.70
2022-09-30T16:01:26.807Z,20.70
2022-09-30T16:03:56.595Z,20.70
2022-09-30T16:06:27.156Z,20.50
2022-09-30T16:09:02.296Z,20.50
2022-09-30T16:11:31.782Z,20.30
2022-09-30T16:14:00.678Z,20.00
2022-09-30T16:16:31.600Z,19.60
2022-09-30T16:19:01.032Z,19.50
2022-09-30T16:21:50.632Z,19.10
2022-09-30T16:24:37.735Z,18.90
2022-09-30T16:27:21.271Z,18.50
2022-09-30T16:29:49.218Z,18.20
2022-09-30T16:32:17.073Z,17.90
2022-09-30T16:34:45.054Z,17.70
2022-09-30T16:37:13.686Z,17.30
2022-09-30T16:39:41.707Z,17.00
2022-09-30T16:42:13.685Z,16.70
2022-09-30T16:44:44.427Z,16.50
2022-09-30T16:47:16.468Z,16.30
2022-09-30T16:49:44.887Z,16.10
2022-09-30T16:52:13.308Z,16.00
2022-09-30T16:54:42.657Z,15.80
2022-09-30T16:57:13.303Z,15.60
2022-09-30T16:59:41.324Z,15.50
2022-09-30T17:02:14.072Z,15.30
2022-09-30T17:04:42.867Z,15.20
2022-09-30T17:07:12.243Z,15.00
2022-09-30T17:09:40.400Z,14.90
2022-09-30T17:12:08.779Z,14.80
2022-09-30T17:14:36.709Z,14.70
2022-09-30T17:17:04.656Z,14.60
2022-09-30T17:19:35.438Z,14.50
2022-09-30T17:22:04.120Z,14.40
2022-09-30T17:24:32.400Z,14.30
2022-09-30T17:27:02.591Z,14.20
2022-09-30T17:29:32.922Z,14.10
2022-09-30T17:32:01.408Z,14.00
2022-09-30T17:34:30.206Z,13.80
2022-09-30T17:36:59.994Z,13.70
2022-09-30T17:39:28.839Z,13.60
2022-09-30T17:42:14.641Z,13.50
2022-09-30T17:44:42.941Z,13.40
2022-09-30T17:47:11.537Z,13.40
2022-09-30T17:49:39.646Z,13.30
2022-09-30T17:52:11.081Z,13.30
2022-09-30T17:54:39.020Z,13.30
2022-09-30T17:57:07.330Z,13.20
2022-09-30T17:59:35.591Z,13.20
2022-09-30T18:02:03.673Z,13.20
2022-09-30T18:04:31.745Z,13.10
2022-09-30T18:06:59.740Z,13.10
2022-09-30T18:09:29.221Z,13.00
2022-09-30T18:12:00.381Z,13.00
2022-09-30T18:14:33.037Z,13.00
2022-09-30T18:17:01.220Z,12.90
2022-09-30T18:19:29.250Z,12.90
2022-09-30T18:21:57.198Z,12.80
2022-09-30T18:24:39.021Z,12.70
2022-09-30T18:27:08.285Z,12.70
2022-09-30T18:29:36.553Z,12.60
2022-09-30T18:32:05.054Z,12.60
2022-09-30T18:34:34.295Z,12.50
2022-09-30T18:37:06.750Z,12.50
2022-09-30T18:39:35.942Z,12.40
2022-09-30T18:42:05.096Z,12.30
2022-09-30T18:44:37.507Z,12.20
2022-09-30T18:47:06.027Z,12.10
2022-09-30T18:49:34.207Z,12.00
2022-09-30T18:52:03.218Z,11.90
2022-09-30T18:54:31.512Z,11.80
2022-09-30T18:56:59.848Z,11.70
2022-09-30T18:59:27.692Z,11.60
2022-09-30T19:01:58.500Z,11.50
2022-09-30T19:04:26.538Z,11.50
2022-09-30T19:06:54.487Z,11.50
2022-09-30T19:09:24.599Z,11.50
2022-09-30T19:11:53.042Z,11.50
2022-09-30T19:14:21.219Z,11.60
2022-09-30T19:16:51.187Z,11.70
2022-09-30T19:19:22.809Z,11.70
2022-09-30T19:21:51.032Z,11.70
2022-09-30T19:24:18.914Z,11.70
2022-09-30T19:26:48.022Z,11.70
2022-09-30T19:29:16.297Z,11.70
2022-09-30T19:31:45.379Z,11.70
2022-09-30T19:34:23.971Z,11.60
2022-09-30T19:36:59.720Z,11.60
2022-09-30T19:39:36.719Z,11.50
2022-09-30T19:42:10.162Z,11.50
2022-09-30T19:44:38.121Z,11.50
2022-09-30T19:47:05.993Z,11.50
2022-09-30T19:49:33.870Z,11.40
2022-09-30T19:52:10.694Z,11.30
2022-09-30T19:54:42.474Z,11.30
2022-09-30T19:57:10.404Z,11.30
2022-09-30T19:59:38.337Z,11.30
2022-09-30T20:02:06.209Z,11.20
2022-09-30T20:04:35.205Z,11.10
2022-09-30T20:07:04.448Z,11.10
2022-09-30T20:09:32.415Z,11.00
2022-09-30T20:12:00.261Z,11.00
2022-09-30T20:14:46.073Z,10.90
2022-09-30T20:17:14.543Z,10.90
2022-09-30T20:19:42.502Z,10.80
2022-09-30T20:22:11.679Z,10.70
2022-09-30T20:24:39.635Z,10.60
2022-09-30T20:27:08.204Z,10.60
2022-09-30T20:29:36.243Z,10.50
2022-09-30T20:32:04.475Z,10.40
2022-09-30T20:34:36.690Z,10.40
2022-09-30T20:37:06.609Z,10.30
2022-09-30T20:39:39.774Z,10.30
2022-09-30T20:42:07.885Z,10.30
2022-09-30T20:44:35.857Z,10.30
2022-09-30T20:47:03.741Z,10.30
2022-09-30T20:49:31.550Z,10.30
2022-09-30T20:52:06.141Z,10.30
2022-09-30T20:54:35.473Z,10.30
2022-09-30T20:57:07.594Z,10.30
2022-09-30T20:59:35.903Z,10.20
2022-09-30T21:02:04.292Z,10.20
2022-09-30T21:04:32.166Z,10.20
2022-09-30T21:07:00.395Z,10.20
2022-09-30T21:09:28.279Z,10.20
2022-09-30T21:11:56.227Z,10.20
2022-09-30T21:14:25.875Z,10.10
2022-09-30T21:16:53.910Z,10.00
2022-09-30T21:19:21.811Z,10.00
2022-09-30T21:21:49.830Z,10.00
2022-09-30T21:24:17.768Z,10.00
2022-09-30T21:26:45.773Z,10.00
2022-09-30T21:29:13.612Z,9.90
2022-09-30T21:31:42.859Z,9.90
2022-09-30T21:34:13.530Z,9.90
2022-09-30T21:36:41.871Z,9.90
2022-09-30T21:39:09.814Z,9.90
2022-09-30T21:41:37.718Z,9.90
2022-09-30T21:44:05.817Z,9.90
2022-09-30T21:46:35.601Z,9.90
2022-09-30T21:49:05.745Z,9.90
2022-09-30T21:51:35.981Z,9.90
2022-09-30T21:54:04.113Z,9.90
2022-09-30T21:56:31.990Z,9.90
2022-09-30T21:58:59.914Z,9.90
2022-09-30T22:01:28.055Z,9.90
2022-09-30T22:03:55.959Z,9.90
2022-09-30T22:06:25.925Z,9.90
2022-09-30T22:08:54.216Z,9.90
2022-09-30T22:11:25.207Z,9.90
2022-09-30T22:13:55.534Z,9.80
2022-09-30T22:16:26.067Z,9.90
2022-09-30T22:18:54.479Z,9.90
2022-09-30T22:21:22.401Z,9.80
2022-09-30T22:23:52.024Z,9.80
2022-09-30T22:26:21.473Z,9.80
2022-09-30T22:28:54.014Z,9.90
2022-09-30T22:31:23.736Z,9.90
2022-09-30T22:34:10.133Z,9.90
2022-09-30T22:36:55.735Z,9.90
2022-09-30T22:39:25.275Z,9.90
2022-09-30T22:41:58.404Z,9.90
2022-09-30T22:44:26.844Z,9.90
2022-09-30T22:46:55.108Z,9.90
2022-09-30T22:49:24.355Z,9.90
2022-09-30T22:51:52.238Z,9.90
2022-09-30T22:54:20.055Z,9.90
2022-09-30T22:56:50.448Z,10.00
2022-09-30T22:59:18.466Z,10.00
2022-09-30T23:01:46.877Z,10.00
2022-09-30T23:04:14.871Z,10.10
2022-09-30T23:06:42.881Z,10.10
2022-09-30T23:09:10.870Z,10.10
2022-09-30T23:11:39.214Z,10.10
2022-09-30T23:14:08.369Z,10.10
2022-09-30T23:16:36.272Z,10.10
2022-09-30T23:19:04.357Z,10.10
2022-09-30T23:21:33.498Z,10.10
2022-09-30T23:24:02.027Z,10.10
2022-09-30T23:26:31.202Z,10.00
2022-09-30T23:29:00.083Z,10.00
2022-09-30T23:31:29.495Z,10.00
2022-09-30T23:33:58.056Z,9.90
2022-09-30T23:36:29.654Z,9.90
2022-09-30T23:39:02.037Z,9.80
2022-09-30T23:41:29.921Z,9.80
2022-09-30T23:43:57.727Z,9.80
2022-09-30T23:46:25.690Z,9.70
2022-09-30T23:48:54.898Z,9.70
2022-09-30T23:51:22.814Z,9.70
2022-09-30T23:53:51.314Z,9.70
2022-09-30T23:56:19.719Z,9.70
2022-09-30T23:58:47.665Z,9.70
